DLH9KX EDDF-EDDH
Flight info
| Callsign | DLH9KX |
|---|---|
| Flight time | N/A |
| Altitude | 33000 |
| Route | MARUN2D MARUN Y150 TOLGI DCT SAS P605 NOLGO NOLGO6A |
| Aircraft | A320/M-SDE3FGHIRWY/LB1 |
Departure
| Time | N/A |
|---|---|
| Airport | Frankfurt Main Airport (EDDF) |
Arrival
| Time | 2026-05-08 05:23 |
|---|---|
| Airport | Hamburg Helmut Schmidt Airport (EDDH) |
| Time | Latitude | Longitude | Altitude | Speed | Heading |
|---|---|---|---|---|---|
| 2026-05-08 04:46 | 51.29200 | 9.33226 | 30355 ft | 469 kts | 24° |
| 2026-05-08 04:46 | 51.32227 | 9.35261 | 30723 ft | 465 kts | 15° |
| 2026-05-08 04:47 | 51.35304 | 9.36560 | 31075 ft | 462 kts | 9° |
| 2026-05-08 04:47 | 51.38440 | 9.37644 | 31423 ft | 461 kts | 9° |
| 2026-05-08 04:47 | 51.41571 | 9.38729 | 31767 ft | 460 kts | 9° |
| 2026-05-08 04:47 | 51.44697 | 9.39815 | 32147 ft | 460 kts | 9° |
| 2026-05-08 04:48 | 51.47820 | 9.40906 | 32517 ft | 459 kts | 9° |
| 2026-05-08 04:48 | 51.50942 | 9.41999 | 32878 ft | 458 kts | 9° |
| 2026-05-08 04:48 | 51.54064 | 9.43094 | 33105 ft | 459 kts | 9° |
| 2026-05-08 04:48 | 51.57180 | 9.44185 | 33143 ft | 458 kts | 9° |
| 2026-05-08 04:49 | 51.63399 | 9.46373 | 33140 ft | 458 kts | 9° |
| 2026-05-08 04:49 | 51.69629 | 9.48573 | 33139 ft | 458 kts | 9° |
| 2026-05-08 04:50 | 51.75860 | 9.50786 | 33146 ft | 458 kts | 9° |
| 2026-05-08 04:50 | 51.82074 | 9.53131 | 33146 ft | 460 kts | 15° |
| 2026-05-08 04:51 | 51.87919 | 9.57398 | 33143 ft | 464 kts | 25° |
| 2026-05-08 04:51 | 51.93666 | 9.62169 | 33146 ft | 464 kts | 25° |
| 2026-05-08 04:52 | 51.99407 | 9.66932 | 33146 ft | 464 kts | 25° |
| 2026-05-08 04:52 | 52.05152 | 9.71709 | 33148 ft | 463 kts | 25° |
| 2026-05-08 04:53 | 52.10865 | 9.76478 | 33144 ft | 463 kts | 25° |
| 2026-05-08 04:53 | 52.16579 | 9.81270 | 33157 ft | 463 kts | 25° |
| 2026-05-08 04:54 | 52.19444 | 9.83680 | 33015 ft | 464 kts | 25° |
| 2026-05-08 04:54 | 52.22312 | 9.86094 | 32746 ft | 464 kts | 25° |
| 2026-05-08 04:54 | 52.25206 | 9.88288 | 32483 ft | 462 kts | 18° |
| 2026-05-08 04:54 | 52.28273 | 9.89814 | 32222 ft | 461 kts | 12° |
| 2026-05-08 04:55 | 52.31361 | 9.91140 | 31961 ft | 462 kts | 13° |
| 2026-05-08 04:55 | 52.34445 | 9.92491 | 31703 ft | 457 kts | 13° |
| 2026-05-08 04:55 | 52.37455 | 9.93827 | 31457 ft | 444 kts | 13° |
| 2026-05-08 04:55 | 52.40381 | 9.95132 | 31205 ft | 433 kts | 13° |
| 2026-05-08 04:56 | 52.43251 | 9.96414 | 30959 ft | 423 kts | 13° |
| 2026-05-08 04:56 | 52.44205 | 9.96840 | 30874 ft | 419 kts | 13° |
| 2026-05-08 04:56 | 52.50862 | 9.99799 | 30270 ft | 400 kts | 13° |
| 2026-05-08 04:57 | 52.53542 | 10.00983 | 29993 ft | 397 kts | 13° |
| 2026-05-08 04:57 | 52.56193 | 10.02154 | 29701 ft | 395 kts | 13° |
| 2026-05-08 04:57 | 52.58841 | 10.03327 | 29423 ft | 393 kts | 13° |
| 2026-05-08 04:57 | 52.61480 | 10.04499 | 29140 ft | 391 kts | 13° |
| 2026-05-08 04:58 | 52.64068 | 10.05653 | 28863 ft | 390 kts | 13° |
| 2026-05-08 04:58 | 52.66710 | 10.06835 | 28575 ft | 388 kts | 13° |
| 2026-05-08 04:58 | 52.69311 | 10.08001 | 28300 ft | 386 kts | 13° |
| 2026-05-08 04:58 | 52.71897 | 10.09163 | 28027 ft | 384 kts | 13° |
| 2026-05-08 04:59 | 52.74474 | 10.10324 | 27757 ft | 383 kts | 14° |
| 2026-05-08 04:59 | 52.77020 | 10.11328 | 27494 ft | 380 kts | 8° |
| 2026-05-08 04:59 | 52.79636 | 10.11837 | 27229 ft | 377 kts | 1° |
| 2026-05-08 04:59 | 52.82252 | 10.11930 | 26976 ft | 375 kts | 359° |
| 2026-05-08 05:00 | 52.84856 | 10.12002 | 26653 ft | 375 kts | 359° |
| 2026-05-08 05:00 | 52.87495 | 10.12083 | 25841 ft | 382 kts | 359° |
| 2026-05-08 05:00 | 52.90128 | 10.12174 | 25498 ft | 376 kts | 359° |
| 2026-05-08 05:00 | 52.92732 | 10.12267 | 25085 ft | 372 kts | 359° |
| 2026-05-08 05:01 | 52.95300 | 10.12355 | 24659 ft | 369 kts | 359° |
| 2026-05-08 05:01 | 52.96167 | 10.12384 | 24512 ft | 368 kts | 359° |
| 2026-05-08 05:01 | 53.00740 | 10.12527 | 23755 ft | 364 kts | 359° |
| 2026-05-08 05:01 | 53.03296 | 10.12612 | 23260 ft | 362 kts | 359° |
| 2026-05-08 05:02 | 53.05768 | 10.12698 | 22806 ft | 359 kts | 360° |
| 2026-05-08 05:02 | 53.08181 | 10.12781 | 22386 ft | 356 kts | 360° |
| 2026-05-08 05:02 | 53.10686 | 10.12866 | 21951 ft | 354 kts | 360° |
| 2026-05-08 05:02 | 53.13137 | 10.12948 | 21529 ft | 351 kts | 360° |
| 2026-05-08 05:03 | 53.15563 | 10.13031 | 21109 ft | 348 kts | 360° |
| 2026-05-08 05:03 | 53.17979 | 10.13109 | 20693 ft | 346 kts | 360° |
| 2026-05-08 05:03 | 53.20375 | 10.13188 | 20284 ft | 343 kts | 0° |
| 2026-05-08 05:03 | 53.22750 | 10.13267 | 19885 ft | 341 kts | 0° |
| 2026-05-08 05:04 | 53.25114 | 10.13346 | 19492 ft | 338 kts | 0° |
| 2026-05-08 05:04 | 53.27374 | 10.13424 | 18936 ft | 333 kts | 0° |
| 2026-05-08 05:04 | 53.29700 | 10.13504 | 18224 ft | 330 kts | 0° |
| 2026-05-08 05:04 | 53.31974 | 10.13580 | 17481 ft | 326 kts | 0° |
| 2026-05-08 05:05 | 53.34239 | 10.13655 | 16747 ft | 324 kts | 0° |
| 2026-05-08 05:05 | 53.36477 | 10.13728 | 16061 ft | 320 kts | 0° |
| 2026-05-08 05:05 | 53.38685 | 10.13798 | 15407 ft | 317 kts | 0° |
| 2026-05-08 05:05 | 53.40878 | 10.13684 | 14745 ft | 313 kts | 355° |
| 2026-05-08 05:06 | 53.43045 | 10.13405 | 14124 ft | 311 kts | 355° |
| 2026-05-08 05:06 | 53.45168 | 10.13134 | 13441 ft | 308 kts | 355° |
| 2026-05-08 05:06 | 53.47287 | 10.12868 | 12766 ft | 305 kts | 355° |
| 2026-05-08 05:06 | 53.49422 | 10.12602 | 12082 ft | 302 kts | 356° |
| 2026-05-08 05:07 | 53.51476 | 10.12347 | 11428 ft | 299 kts | 356° |
| 2026-05-08 05:07 | 53.53536 | 10.12086 | 10913 ft | 291 kts | 356° |
| 2026-05-08 05:07 | 53.55487 | 10.11833 | 10771 ft | 271 kts | 356° |
| 2026-05-08 05:07 | 53.57320 | 10.12022 | 10395 ft | 261 kts | 15° |
| 2026-05-08 05:08 | 53.58958 | 10.13218 | 9919 ft | 255 kts | 35° |
| 2026-05-08 05:08 | 53.60244 | 10.15217 | 9390 ft | 250 kts | 52° |
| 2026-05-08 05:08 | 53.61333 | 10.17443 | 9197 ft | 245 kts | 51° |
| 2026-05-08 05:08 | 53.62428 | 10.19651 | 9042 ft | 245 kts | 51° |
| 2026-05-08 05:09 | 53.63522 | 10.21850 | 8894 ft | 245 kts | 51° |
| 2026-05-08 05:09 | 53.64617 | 10.24056 | 8755 ft | 245 kts | 51° |
| 2026-05-08 05:09 | 53.65702 | 10.26243 | 8608 ft | 243 kts | 51° |
| 2026-05-08 05:09 | 53.66783 | 10.28423 | 8451 ft | 242 kts | 51° |
| 2026-05-08 05:10 | 53.67859 | 10.30593 | 8322 ft | 242 kts | 51° |
| 2026-05-08 05:10 | 53.70002 | 10.34924 | 8034 ft | 240 kts | 51° |
| 2026-05-08 05:10 | 53.71071 | 10.37083 | 7907 ft | 239 kts | 51° |
| 2026-05-08 05:11 | 53.72132 | 10.39233 | 7762 ft | 238 kts | 51° |
| 2026-05-08 05:11 | 53.73189 | 10.41381 | 7633 ft | 237 kts | 51° |
| 2026-05-08 05:11 | 53.74239 | 10.43511 | 7488 ft | 236 kts | 51° |
| 2026-05-08 05:11 | 53.75287 | 10.45636 | 7351 ft | 235 kts | 51° |
| 2026-05-08 05:12 | 53.76328 | 10.47753 | 7221 ft | 235 kts | 51° |
| 2026-05-08 05:12 | 53.77370 | 10.49874 | 7074 ft | 234 kts | 51° |
| 2026-05-08 05:12 | 53.78404 | 10.51975 | 6940 ft | 233 kts | 51° |
| 2026-05-08 05:12 | 53.79439 | 10.54079 | 6797 ft | 231 kts | 52° |
| 2026-05-08 05:13 | 53.80454 | 10.56146 | 6662 ft | 230 kts | 52° |
| 2026-05-08 05:13 | 53.81472 | 10.58229 | 6503 ft | 229 kts | 52° |
| 2026-05-08 05:13 | 53.82522 | 10.60238 | 6338 ft | 229 kts | 41° |
| 2026-05-08 05:13 | 53.83972 | 10.61300 | 6203 ft | 234 kts | 8° |
| 2026-05-08 05:14 | 53.85557 | 10.60802 | 6033 ft | 241 kts | 334° |
| 2026-05-08 05:14 | 53.86870 | 10.59058 | 5865 ft | 244 kts | 322° |
| 2026-05-08 05:14 | 53.88153 | 10.57163 | 5693 ft | 245 kts | 317° |
| 2026-05-08 05:14 | 53.88990 | 10.54668 | 5521 ft | 249 kts | 283° |
| 2026-05-08 05:15 | 53.88891 | 10.51778 | 5351 ft | 248 kts | 247° |
| 2026-05-08 05:15 | 53.87910 | 10.49456 | 5189 ft | 243 kts | 219° |
| 2026-05-08 05:15 | 53.86710 | 10.47422 | 5008 ft | 246 kts | 226° |
| 2026-05-08 05:15 | 53.85620 | 10.45152 | 4692 ft | 255 kts | 230° |
| 2026-05-08 05:16 | 53.84497 | 10.42717 | 4486 ft | 262 kts | 229° |
| 2026-05-08 05:16 | 53.83748 | 10.41148 | 4390 ft | 255 kts | 228° |
| 2026-05-08 05:16 | 53.82639 | 10.38864 | 4179 ft | 248 kts | 228° |
| 2026-05-08 05:16 | 53.81554 | 10.36637 | 4017 ft | 241 kts | 228° |
| 2026-05-08 05:17 | 53.80521 | 10.34511 | 4000 ft | 229 kts | 228° |
| 2026-05-08 05:17 | 53.79528 | 10.32470 | 4019 ft | 217 kts | 227° |
| 2026-05-08 05:17 | 53.78615 | 10.30591 | 3998 ft | 197 kts | 227° |
| 2026-05-08 05:17 | 53.77778 | 10.28874 | 3974 ft | 180 kts | 226° |
| 2026-05-08 05:18 | 53.77027 | 10.27331 | 4003 ft | 161 kts | 226° |
| 2026-05-08 05:18 | 53.76324 | 10.25896 | 3952 ft | 158 kts | 226° |
| 2026-05-08 05:18 | 53.75630 | 10.24476 | 3799 ft | 157 kts | 225° |
| 2026-05-08 05:18 | 53.74937 | 10.23060 | 3604 ft | 156 kts | 225° |
| 2026-05-08 05:19 | 53.74245 | 10.21645 | 3403 ft | 156 kts | 226° |
| 2026-05-08 05:19 | 53.73554 | 10.20233 | 3196 ft | 156 kts | 226° |
| 2026-05-08 05:19 | 53.72866 | 10.18826 | 2978 ft | 155 kts | 226° |
| 2026-05-08 05:19 | 53.72183 | 10.17431 | 2767 ft | 154 kts | 225° |
| 2026-05-08 05:20 | 53.71502 | 10.16041 | 2554 ft | 153 kts | 225° |
| 2026-05-08 05:20 | 53.70826 | 10.14662 | 2343 ft | 152 kts | 225° |
| 2026-05-08 05:20 | 53.70155 | 10.13293 | 2134 ft | 151 kts | 225° |
| 2026-05-08 05:20 | 53.69489 | 10.11937 | 1924 ft | 150 kts | 226° |
| 2026-05-08 05:21 | 53.68827 | 10.10589 | 1727 ft | 148 kts | 226° |
| 2026-05-08 05:21 | 53.68174 | 10.09256 | 1501 ft | 147 kts | 225° |
| 2026-05-08 05:21 | 53.67533 | 10.07927 | 1294 ft | 145 kts | 225° |
| 2026-05-08 05:21 | 53.66883 | 10.06676 | 1112 ft | 143 kts | 224° |
| 2026-05-08 05:22 | 53.66259 | 10.05380 | 916 ft | 142 kts | 232° |
| 2026-05-08 05:22 | 53.65652 | 10.04087 | 731 ft | 139 kts | 226° |
| 2026-05-08 05:22 | 53.65021 | 10.02852 | 590 ft | 139 kts | 229° |
| 2026-05-08 05:22 | 53.64410 | 10.01608 | 358 ft | 138 kts | 229° |
| 2026-05-08 05:23 | 53.63793 | 10.00364 | 139 ft | 138 kts | 229° |
| 2026-05-08 05:23 | 53.63195 | 9.99151 | 47 ft | 123 kts | 230° |
| 2026-05-08 05:23 | 53.62812 | 9.98369 | 43 ft | 54 kts | 230° |
| 2026-05-08 05:23 | 53.62610 | 9.97959 | 41 ft | 29 kts | 230° |
| 2026-05-08 05:24 | 53.62490 | 9.97787 | 41 ft | 18 kts | 176° |
| 2026-05-08 05:24 | 53.62430 | 9.97924 | 46 ft | 15 kts | 85° |
| 2026-05-08 05:24 | 53.62465 | 9.98102 | 47 ft | 17 kts | 58° |
| 2026-05-08 05:24 | 53.62550 | 9.98270 | 47 ft | 21 kts | 49° |
| 2026-05-08 05:25 | 53.62648 | 9.98468 | 47 ft | 23 kts | 50° |
| 2026-05-08 05:25 | 53.62757 | 9.98688 | 47 ft | 26 kts | 50° |
| 2026-05-08 05:25 | 53.62877 | 9.98930 | 47 ft | 28 kts | 50° |
| 2026-05-08 05:25 | 53.63004 | 9.99188 | 47 ft | 30 kts | 50° |
| 2026-05-08 05:26 | 53.63129 | 9.99472 | 46 ft | 31 kts | 56° |
| 2026-05-08 05:26 | 53.63267 | 9.99746 | 48 ft | 31 kts | 46° |
| 2026-05-08 05:26 | 53.63401 | 10.00009 | 48 ft | 24 kts | 49° |
| 2026-05-08 05:26 | 53.63368 | 10.00221 | 48 ft | 23 kts | 158° |
| 2026-05-08 05:27 | 53.63227 | 10.00246 | 48 ft | 17 kts | 176° |
| 2026-05-08 05:27 | 53.63172 | 10.00264 | 47 ft | 5 kts | 142° |
| 2026-05-08 05:27 | 53.63166 | 10.00316 | 48 ft | 4 kts | 88° |
| 2026-05-08 05:27 | 53.63167 | 10.00346 | 48 ft | 0 kts | 86° |
| 2026-05-08 05:28 | 53.63168 | 10.00360 | 48 ft | 3 kts | 87° |
| 2026-05-08 05:28 | 53.63168 | 10.00370 | 48 ft | 0 kts | 87° |
| 2026-05-08 05:28 | 53.63168 | 10.00374 | 48 ft | 0 kts | 87° |